Time;durP1;ratioP1;P1;durP2;ratioP2;P2;SDS_P1;SDS_P2;PMS_P1;PMS_P2;Temp;Humidity;BMP_temperature;BMP_pressure;BME280_temperature;BME280_humidity;BME280_pressure;Samples;Min_cycle;Max_cycle;Signal;HPM_P1;HPM_P2
2021/01/02 00:00:11;;;;;;;;;;;;;;;-1.99;96.31;92277.84;1063483;55;21130;-85
2021/01/02 00:01:17;;;;;;;;;;;;;;;-2.03;96.47;92277.81;1063481;55;20173;-84
2021/01/02 00:02:26;;;;;;;;;;;;;;;-1.96;96.80;92267.44;1063327;55;20158;-84
2021/01/02 00:03:45;;;;;;;;;;;;;;;-1.94;96.82;92269.69;1064087;55;20649;-86
2021/01/02 00:04:57;;;;;;;;;;;;;;;-1.91;96.21;92263.72;1063530;55;20304;-84
2021/01/02 00:06:02;;;;;;;;;;;;;;;-1.88;96.26;92265.66;1059470;56;20162;-84
2021/01/02 00:07:02;;;;;;;;;;;;;;;-1.90;96.02;92265.97;1061446;56;20225;-84
2021/01/02 00:08:03;;;;;;;;;;;;;;;-1.91;96.15;92264.47;1061447;56;20193;-83
2021/01/02 00:09:05;;;;;;;;;;;;;;;-1.90;96.43;92273.84;1063541;55;20640;-84
2021/01/02 00:10:06;;;;;;;;;;;;;;;-1.91;95.97;92263.72;1061110;56;20165;-84
2021/01/02 00:11:08;;;;;;;;;;;;;;;-1.92;96.30;92262.22;1061404;55;20181;-84
2021/01/02 00:12:21;;;;;;;;;;;;;;;-1.82;96.11;92278.03;1065537;55;20204;-84
2021/01/02 00:13:30;;;;;;;;;;;;;;;-1.75;95.17;92272.13;1061291;56;20154;-84
2021/01/02 00:14:48;;;;;;;;;;;;;;;-1.75;95.48;92276.62;1059630;56;20170;-84
2021/01/02 00:16:02;;;;;;;;;;;;;;;-1.78;95.19;92265.00;1059771;56;20178;-82
2021/01/02 00:17:13;;;;;;;;;;;;;;;-1.78;95.20;92278.09;1061132;56;20194;-84
2021/01/02 00:18:30;;;;;;;;;;;;;;;-1.68;95.16;92272.19;1059653;56;20163;-84
2021/01/02 00:19:39;;;;;;;;;;;;;;;-1.78;94.99;92268.34;1060168;56;20186;-83
2021/01/02 00:20:48;;;;;;;;;;;;;;;-1.94;95.40;92269.69;1061469;56;20587;-84
2021/01/02 00:22:03;;;;;;;;;;;;;;;-1.91;96.37;92269.72;1063883;55;20166;-84
2021/01/02 00:23:10;;;;;;;;;;;;;;;-1.95;96.57;92268.19;1063869;55;20180;-84
2021/01/02 00:24:20;;;;;;;;;;;;;;;-1.91;96.73;92271.59;1065567;55;20188;-83
2021/01/02 00:25:21;;;;;;;;;;;;;;;-1.96;96.63;92272.66;1061153;56;20220;-83
2021/01/02 00:26:30;;;;;;;;;;;;;;;-1.93;96.53;92271.19;1061216;56;20193;-84
2021/01/02 00:27:37;;;;;;;;;;;;;;;-1.98;96.62;92271.50;1063614;55;20162;-82
2021/01/02 00:28:40;;;;;;;;;;;;;;;-1.82;96.42;92278.03;1063416;56;20184;-84
2021/01/02 00:30:02;;;;;;;;;;;;;;;-1.86;96.32;92272.00;1061087;56;20174;-84
2021/01/02 00:31:16;;;;;;;;;;;;;;;-1.81;96.06;92271.69;1059825;56;20173;-83
2021/01/02 00:32:35;;;;;;;;;;;;;;;-1.92;96.33;92277.94;1062212;55;20233;-83
2021/01/02 00:33:41;;;;;;;;;;;;;;;-1.97;96.21;92275.66;1063353;56;20180;-84
2021/01/02 00:34:51;;;;;;;;;;;;;;;-2.01;96.63;92274.84;1061290;56;20176;-87
2021/01/02 00:35:51;;;;;;;;;;;;;;;-1.94;97.07;92280.16;1057491;56;20160;-82
2021/01/02 00:37:10;;;;;;;;;;;;;;;-1.94;96.89;92277.53;1057054;56;20647;-84
2021/01/02 00:38:11;;;;;;;;;;;;;;;-1.94;97.18;92274.91;1058124;56;20244;-84
2021/01/02 00:39:19;;;;;;;;;;;;;;;-1.93;97.17;92277.19;1061250;56;20673;-84
2021/01/02 00:40:20;;;;;;;;;;;;;;;-1.97;96.88;92270.41;1061444;56;20188;-84
2021/01/02 00:41:22;;;;;;;;;;;;;;;-1.95;96.90;92271.53;1063409;56;20181;-83
2021/01/02 00:42:24;;;;;;;;;;;;;;;-2.04;96.77;92271.06;1063420;56;20282;-83
2021/01/02 00:43:25;;;;;;;;;;;;;;;-1.98;96.61;92268.88;1059168;56;20162;-83
2021/01/02 00:44:26;;;;;;;;;;;;;;;-1.99;97.00;92268.12;1061078;56;20181;-84
2021/01/02 00:45:28;;;;;;;;;;;;;;;-1.91;96.66;92271.59;1061532;56;20162;-84
2021/01/02 00:46:28;;;;;;;;;;;;;;;-2.01;96.56;92274.84;1061521;56;21066;-83
2021/01/02 00:47:32;;;;;;;;;;;;;;;-2.00;96.19;92266.63;1059368;56;20169;-84
2021/01/02 00:48:38;;;;;;;;;;;;;;;-1.95;96.81;92268.94;1059930;56;20158;-81
2021/01/02 00:49:40;;;;;;;;;;;;;;;-1.89;96.46;92264.91;1061678;55;20229;-84
2021/01/02 00:50:41;;;;;;;;;;;;;;;-1.96;96.29;92266.69;1065901;55;20161;-83
2021/01/02 00:51:49;;;;;;;;;;;;;;;-2.03;96.52;92267.34;1063747;55;20188;-84
2021/01/02 00:52:50;;;;;;;;;;;;;;;-2.03;96.49;92265.47;1063942;55;20642;-83
2021/01/02 00:54:09;;;;;;;;;;;;;;;-1.97;96.43;92271.16;1063677;55;20221;-84
2021/01/02 00:55:10;;;;;;;;;;;;;;;-1.97;96.67;92265.19;1060004;56;20197;-83
2021/01/02 00:56:17;;;;;;;;;;;;;;;-2.01;96.27;92267.00;1061500;55;21325;-83
2021/01/02 00:57:42;;;;;;;;;;;;;;;-2.04;96.55;92269.19;1061503;56;20280;-84
2021/01/02 00:58:54;;;;;;;;;;;;;;;-2.09;97.05;92272.13;1060021;56;20209;-83
2021/01/02 01:00:05;;;;;;;;;;;;;;;-1.96;97.36;92266.69;1065755;55;20172;-84
2021/01/02 01:01:07;;;;;;;;;;;;;;;-1.97;96.89;92262.56;1065923;55;20162;-83
2021/01/02 01:02:13;;;;;;;;;;;;;;;-2.01;97.29;92269.62;1063650;55;20727;-84
2021/01/02 01:03:33;;;;;;;;;;;;;;;-2.05;97.38;92270.31;1063768;55;20267;-84
2021/01/02 01:05:05;;;;;;;;;;;;;;;-2.07;97.26;92274.38;1061532;56;20173;-83
2021/01/02 01:06:10;;;;;;;;;;;;;;;-2.04;97.52;92278.94;1060232;56;20170;-84
2021/01/02 01:07:16;;;;;;;;;;;;;;;-2.05;97.56;92274.81;1059385;56;20214;-84
2021/01/02 01:08:17;;;;;;;;;;;;;;;-1.98;97.26;92269.62;1059771;56;20198;-84
2021/01/02 01:09:22;;;;;;;;;;;;;;;-1.95;96.96;92268.94;1061530;56;20638;-85
2021/01/02 01:10:23;;;;;;;;;;;;;;;-2.01;97.24;92272.22;1061680;56;20208;-84
2021/01/02 01:11:32;;;;;;;;;;;;;;;-2.04;96.90;92274.44;1061708;56;20162;-84
2021/01/02 01:12:36;;;;;;;;;;;;;;;-2.00;96.61;92273.72;1061721;56;20158;-84
2021/01/02 01:13:37;;;;;;;;;;;;;;;-2.07;97.18;92271.78;1063860;55;20176;-82
2021/01/02 01:14:38;;;;;;;;;;;;;;;-2.01;97.74;92278.22;1061496;56;20177;-84
2021/01/02 01:15:40;;;;;;;;;;;;;;;-1.94;97.13;92273.03;1057348;56;20186;-83
2021/01/02 01:16:43;;;;;;;;;;;;;;;-1.95;97.17;92276.03;1057242;56;20218;-84
2021/01/02 01:18:03;;;;;;;;;;;;;;;-1.95;96.58;92283.88;1061749;55;20221;-85
2021/01/02 01:19:04;;;;;;;;;;;;;;;-1.99;96.62;92275.97;1061457;56;20158;-84
2021/01/02 01:20:08;;;;;;;;;;;;;;;-1.96;96.96;92282.38;1061668;55;20154;-84
2021/01/02 01:21:11;;;;;;;;;;;;;;;-2.08;96.83;92271.03;1063498;55;20184;-84
2021/01/02 01:22:14;;;;;;;;;;;;;;;-1.97;96.86;92279.00;1063613;55;20204;-83
2021/01/02 01:23:24;;;;;;;;;;;;;;;-1.93;96.45;92281.66;1061644;56;20185;-84
2021/01/02 01:24:39;;;;;;;;;;;;;;;-1.99;96.36;92283.84;1059742;56;20155;-86
2021/01/02 01:25:58;;;;;;;;;;;;;;;-1.93;96.78;92281.66;1060271;56;20986;-84
2021/01/02 01:27:14;;;;;;;;;;;;;;;-1.90;95.91;92278.31;1062095;56;20166;-85
2021/01/02 01:28:17;;;;;;;;;;;;;;;-1.88;95.67;92278.75;1064219;55;20165;-85
2021/01/02 01:29:21;;;;;;;;;;;;;;;-1.95;95.77;92281.25;1063591;55;20610;-83
2021/01/02 01:30:22;;;;;;;;;;;;;;;-2.05;96.29;92283.41;1059507;56;20201;-84
2021/01/02 01:31:23;;;;;;;;;;;;;;;-2.07;96.35;92280.37;1059425;56;20194;-84
2021/01/02 01:32:24;;;;;;;;;;;;;;;-2.11;96.27;92273.59;1061478;56;20217;-84
2021/01/02 01:33:28;;;;;;;;;;;;;;;-2.03;96.87;92283.03;1061614;56;20661;-84
2021/01/02 01:34:32;;;;;;;;;;;;;;;-2.12;97.04;92277.34;1063648;55;20203;-83
2021/01/02 01:35:36;;;;;;;;;;;;;;;-2.19;97.18;92275.41;1061565;56;20228;-84
2021/01/02 01:36:41;;;;;;;;;;;;;;;-2.20;96.94;92273.88;1061521;56;20185;-84
2021/01/02 01:37:42;;;;;;;;;;;;;;;-2.16;97.27;92282.53;1063688;55;20154;-83
2021/01/02 01:38:43;;;;;;;;;;;;;;;-2.14;97.50;92282.94;1065697;55;20181;-84
2021/01/02 01:39:51;;;;;;;;;;;;;;;-2.12;97.13;92282.56;1059396;56;20184;-84
2021/01/02 01:40:56;;;;;;;;;;;;;;;-2.11;97.67;92282.22;1059885;56;20215;-83
2021/01/02 01:42:15;;;;;;;;;;;;;;;-2.11;97.75;92277.00;1063670;55;20233;-84
2021/01/02 01:43:26;;;;;;;;;;;;;;;-2.07;96.99;92283.00;1062975;55;20162;-83
2021/01/02 01:44:43;;;;;;;;;;;;;;;-2.09;96.91;92287.84;1061885;56;20190;-84
2021/01/02 01:45:55;;;;;;;;;;;;;;;-2.23;96.77;92279.84;1062094;56;20186;-86
2021/01/02 01:47:02;;;;;;;;;;;;;;;-2.19;97.31;92274.66;1063580;55;20165;-84
2021/01/02 01:48:05;;;;;;;;;;;;;;;-2.19;96.94;92279.87;1061792;56;21112;-84
2021/01/02 01:49:09;;;;;;;;;;;;;;;-2.20;97.29;92281.72;1059449;56;20920;-85
2021/01/02 01:50:13;;;;;;;;;;;;;;;-2.22;97.40;92291.81;1063565;55;20259;-84
2021/01/02 01:51:14;;;;;;;;;;;;;;;-2.16;97.55;92285.13;1065684;55;20646;-83
2021/01/02 01:52:34;;;;;;;;;;;;;;;-2.12;97.50;92288.56;1061589;56;20263;-84
2021/01/02 01:53:36;;;;;;;;;;;;;;;-2.16;97.27;92287.75;1057738;56;20772;-83
2021/01/02 01:54:45;;;;;;;;;;;;;;;-2.15;97.26;92280.66;1056860;56;20182;-84
2021/01/02 01:55:56;;;;;;;;;;;;;;;-2.19;97.46;92282.50;1059665;56;20158;-84
2021/01/02 01:57:02;;;;;;;;;;;;;;;-2.17;97.59;92283.62;1064126;55;20274;-85
2021/01/02 01:58:12;;;;;;;;;;;;;;;-2.19;97.65;92278.00;1065487;55;20201;-84
2021/01/02 01:59:17;;;;;;;;;;;;;;;-2.25;97.19;92276.81;1064067;55;20162;-84
2021/01/02 02:00:19;;;;;;;;;;;;;;;-2.17;97.83;92275.78;1063536;55;20550;-83
2021/01/02 02:01:26;;;;;;;;;;;;;;;-2.24;97.80;92273.06;1061395;56;20166;-84
2021/01/02 02:02:29;;;;;;;;;;;;;;;-2.22;97.87;92265.63;1063874;55;20299;-84
2021/01/02 02:03:34;;;;;;;;;;;;;;;-2.23;97.80;92277.22;1061470;56;20583;-82
2021/01/02 02:04:37;;;;;;;;;;;;;;;-2.21;97.89;92277.59;1061784;55;20204;-82
2021/01/02 02:05:48;;;;;;;;;;;;;;;-2.24;97.71;92278.31;1063722;55;20185;-83
2021/01/02 02:06:52;;;;;;;;;;;;;;;-2.28;97.18;92288.00;1064049;55;20165;-84
2021/01/02 02:07:58;;;;;;;;;;;;;;;-2.26;97.81;92271.94;1061634;56;20263;-84
2021/01/02 02:09:00;;;;;;;;;;;;;;;-2.28;98.28;92269.69;1061907;55;20181;-83
2021/01/02 02:10:00;;;;;;;;;;;;;;;-2.20;97.47;92273.13;1061387;56;20158;-84
2021/01/02 02:11:03;;;;;;;;;;;;;;;-2.25;97.46;92274.19;1061420;56;20655;-84
2021/01/02 02:12:04;;;;;;;;;;;;;;;-2.34;98.09;92273.69;1061741;55;20579;-83
2021/01/02 02:13:10;;;;;;;;;;;;;;;-2.38;97.83;92275.53;1063642;55;20177;-84
2021/01/02 02:14:16;;;;;;;;;;;;;;;-2.42;98.14;92278.09;1059463;56;20194;-83
2021/01/02 02:15:19;;;;;;;;;;;;;;;-2.36;98.59;92276.69;1059402;56;20185;-83
2021/01/02 02:16:21;;;;;;;;;;;;;;;-2.30;98.93;92284.97;1059341;56;20690;-82
2021/01/02 02:17:23;;;;;;;;;;;;;;;-2.25;98.64;92283.91;1059342;56;20214;-86
2021/01/02 02:18:27;;;;;;;;;;;;;;;-2.18;98.28;92276.16;1059460;56;20248;-83
2021/01/02 02:19:46;;;;;;;;;;;;;;;-2.21;98.01;92277.59;1061547;56;20154;-85
2021/01/02 02:20:48;;;;;;;;;;;;;;;-2.22;98.15;92277.97;1064197;55;20181;-84
2021/01/02 02:21:49;;;;;;;;;;;;;;;-2.28;97.91;92278.28;1063449;55;20614;-84
2021/01/02 02:23:00;;;;;;;;;;;;;;;-2.25;97.77;92276.06;1063483;55;20149;-83
2021/01/02 02:24:02;;;;;;;;;;;;;;;-2.25;98.35;92276.06;1061357;56;20658;-84
2021/01/02 02:25:04;;;;;;;;;;;;;;;-2.29;97.79;92284.59;1059573;56;20598;-85
2021/01/02 02:26:06;;;;;;;;;;;;;;;-2.31;97.84;92280.84;1063690;55;20306;-83
2021/01/02 02:27:10;;;;;;;;;;;;;;;-2.33;97.63;92278.59;1065640;55;20153;-84
2021/01/02 02:28:27;;;;;;;;;;;;;;;-2.28;98.12;92282.78;1067748;55;20292;-83
2021/01/02 02:29:32;;;;;;;;;;;;;;;-2.29;97.69;92281.25;1063476;55;20190;-83
2021/01/02 02:30:34;;;;;;;;;;;;;;;-2.31;98.25;92284.22;1063807;55;20723;-83
2021/01/02 02:31:40;;;;;;;;;;;;;;;-2.21;97.93;92288.06;1065665;55;20724;-84
2021/01/02 02:32:42;;;;;;;;;;;;;;;-2.23;97.94;92289.56;1063553;55;20277;-84
2021/01/02 02:33:56;;;;;;;;;;;;;;;-2.25;98.07;92287.28;1065863;55;20174;-83
2021/01/02 02:34:57;;;;;;;;;;;;;;;-2.23;98.54;92292.16;1065200;55;20185;-85
2021/01/02 02:35:59;;;;;;;;;;;;;;;-2.25;98.43;92284.66;1063691;55;20173;-84
2021/01/02 02:37:00;;;;;;;;;;;;;;;-2.23;98.35;92284.31;1065574;55;20174;-85
2021/01/02 02:38:00;;;;;;;;;;;;;;;-2.26;97.74;92287.63;1063542;55;20272;-85
2021/01/02 02:39:05;;;;;;;;;;;;;;;-2.29;98.23;92281.25;1061300;56;20302;-83
2021/01/02 02:40:09;;;;;;;;;;;;;;;-2.24;97.83;92288.78;1063632;55;20330;-84
2021/01/02 02:41:09;;;;;;;;;;;;;;;-2.35;98.05;92286.03;1065686;55;20189;-82
2021/01/02 02:42:11;;;;;;;;;;;;;;;-2.22;97.62;92280.59;1065902;55;20177;-84
2021/01/02 02:43:11;;;;;;;;;;;;;;;-2.29;97.68;92279.37;1063480;55;20177;-83
2021/01/02 02:44:15;;;;;;;;;;;;;;;-2.28;97.93;92273.06;1063365;55;20180;-84
2021/01/02 02:45:17;;;;;;;;;;;;;;;-2.29;97.94;92271.53;1061307;56;20162;-83
2021/01/02 02:46:19;;;;;;;;;;;;;;;-2.30;97.89;92284.97;1061085;56;20602;-84
2021/01/02 02:47:22;;;;;;;;;;;;;;;-2.35;98.20;92278.19;1063449;55;20255;-83
2021/01/02 02:48:23;;;;;;;;;;;;;;;-2.25;97.74;92271.56;1063196;55;20190;-83
2021/01/02 02:49:25;;;;;;;;;;;;;;;-2.23;97.43;92279.09;1059469;55;20618;-84
2021/01/02 02:50:26;;;;;;;;;;;;;;;-2.30;97.28;92283.09;1065752;55;20956;-84
2021/01/02 02:51:29;;;;;;;;;;;;;;;-2.41;98.18;92278.88;1063368;55;20657;-84
2021/01/02 02:52:37;;;;;;;;;;;;;;;-2.33;98.46;92283.84;1061552;56;20709;-83
2021/01/02 02:53:39;;;;;;;;;;;;;;;-2.29;98.15;92279.37;1061598;56;20158;-84
2021/01/02 02:54:40;;;;;;;;;;;;;;;-2.33;98.49;92281.22;1059242;56;20154;-83
2021/01/02 02:55:42;;;;;;;;;;;;;;;-2.17;98.18;92277.66;1061355;56;20157;-84
2021/01/02 02:56:43;;;;;;;;;;;;;;;-2.23;97.52;92281.69;1063676;55;20204;-83
2021/01/02 02:57:47;;;;;;;;;;;;;;;-2.36;97.72;92283.78;1065816;55;20617;-83
2021/01/02 02:58:49;;;;;;;;;;;;;;;-2.28;97.69;92283.53;1063552;55;20649;-83
2021/01/02 02:59:49;;;;;;;;;;;;;;;-2.38;97.66;92284.12;1061385;56;20162;-85
2021/01/02 03:00:51;;;;;;;;;;;;;;;-2.39;97.80;92281.88;1063527;55;20193;-84
2021/01/02 03:01:51;;;;;;;;;;;;;;;-2.45;98.52;92273.59;1061387;56;20181;-85
2021/01/02 03:02:52;;;;;;;;;;;;;;;-2.49;98.19;92277.25;1061323;56;20638;-84
2021/01/02 03:03:54;;;;;;;;;;;;;;;-2.43;98.32;92278.44;1061362;56;20165;-85
2021/01/02 03:04:54;;;;;;;;;;;;;;;-2.44;98.57;92285.53;1061571;56;20185;-83
2021/01/02 03:05:55;;;;;;;;;;;;;;;-2.55;98.21;92276.78;1063497;55;20630;-86
2021/01/02 03:06:56;;;;;;;;;;;;;;;-2.53;99.32;92280.56;1063531;55;20194;-82
2021/01/02 03:07:57;;;;;;;;;;;;;;;-2.50;99.30;92279.13;1061322;56;20185;-84
2021/01/02 03:08:58;;;;;;;;;;;;;;;-2.59;99.14;92278.59;1063470;55;20162;-82
2021/01/02 03:09:59;;;;;;;;;;;;;;;-2.59;99.88;92270.75;1061202;56;20185;-85
2021/01/02 03:11:01;;;;;;;;;;;;;;;-2.58;99.73;92275.66;1059233;56;20162;-82
2021/01/02 03:12:01;;;;;;;;;;;;;;;-2.61;99.29;92271.13;1059435;56;20580;-84
2021/01/02 03:13:02;;;;;;;;;;;;;;;-2.49;99.70;92277.25;1059216;56;20173;-83
2021/01/02 03:14:03;;;;;;;;;;;;;;;-2.53;100.00;92277.97;1056974;56;20749;-84
2021/01/02 03:15:03;;;;;;;;;;;;;;;-2.44;99.45;92282.94;1059341;56;20190;-84
2021/01/02 03:16:04;;;;;;;;;;;;;;;-2.39;98.93;92277.38;1059290;56;20186;-84
2021/01/02 03:17:07;;;;;;;;;;;;;;;-2.46;99.06;92277.28;1061439;56;20244;-84
2021/01/02 03:18:08;;;;;;;;;;;;;;;-2.46;98.82;92279.16;1063578;55;20162;-84
2021/01/02 03:19:09;;;;;;;;;;;;;;;-2.38;99.17;92278.88;1061391;56;20201;-84
2021/01/02 03:20:10;;;;;;;;;;;;;;;-2.48;98.94;92279.50;1061409;56;20182;-83
2021/01/02 03:21:11;;;;;;;;;;;;;;;-2.52;99.20;92281.31;1063418;55;20189;-84
2021/01/02 03:22:11;;;;;;;;;;;;;;;-2.51;98.74;92280.22;1059166;56;20186;-84
2021/01/02 03:23:11;;;;;;;;;;;;;;;-2.54;99.32;92286.16;1059178;56;20790;-84
2021/01/02 03:24:13;;;;;;;;;;;;;;;-2.59;99.24;92287.22;1063537;55;20184;-83
2021/01/02 03:25:15;;;;;;;;;;;;;;;-2.58;99.65;92285.38;1063386;55;20206;-84
2021/01/02 03:26:17;;;;;;;;;;;;;;;-2.50;99.60;92291.44;1061362;56;20161;-84
2021/01/02 03:27:18;;;;;;;;;;;;;;;-2.53;98.81;92287.66;1061345;56;20607;-85
2021/01/02 03:28:19;;;;;;;;;;;;;;;-2.46;99.43;92285.13;1063364;55;20570;-83
2021/01/02 03:29:20;;;;;;;;;;;;;;;-2.37;99.51;92293.50;1063418;55;20154;-84
2021/01/02 03:30:22;;;;;;;;;;;;;;;-2.26;98.86;92293.63;1061164;56;20189;-83
2021/01/02 03:31:22;;;;;;;;;;;;;;;-2.43;98.31;92292.28;1063580;55;20211;-84
2021/01/02 03:32:23;;;;;;;;;;;;;;;-2.48;98.83;92289.22;1061527;56;20228;-84
2021/01/02 03:33:25;;;;;;;;;;;;;;;-2.49;98.51;92288.47;1063628;55;20185;-84
2021/01/02 03:34:27;;;;;;;;;;;;;;;-2.51;98.52;92289.94;1061302;56;20213;-84
2021/01/02 03:35:28;;;;;;;;;;;;;;;-2.42;98.82;92283.31;1057213;56;20155;-84
2021/01/02 03:36:28;;;;;;;;;;;;;;;-2.42;98.05;92287.81;1057205;56;20243;-83
2021/01/02 03:37:29;;;;;;;;;;;;;;;-2.43;98.05;92286.28;1057059;56;20154;-86
2021/01/02 03:38:32;;;;;;;;;;;;;;;-2.47;98.44;92290.72;1061401;55;20166;-84
2021/01/02 03:39:34;;;;;;;;;;;;;;;-2.44;98.52;92288.16;1063660;55;20697;-83
2021/01/02 03:40:35;;;;;;;;;;;;;;;-2.43;98.40;92287.06;1061368;56;20248;-83
2021/01/02 03:41:36;;;;;;;;;;;;;;;-2.39;98.38;92287.09;1061411;56;21100;-84
2021/01/02 03:42:37;;;;;;;;;;;;;;;-2.41;97.65;92287.47;1059287;56;20162;-83
2021/01/02 03:43:37;;;;;;;;;;;;;;;-2.42;97.93;92283.31;1063368;55;20185;-85
2021/01/02 03:44:39;;;;;;;;;;;;;;;-2.42;98.70;92280.69;1065619;55;20618;-85
2021/01/02 03:45:40;;;;;;;;;;;;;;;-2.48;98.98;92289.22;1063338;55;20177;-84
2021/01/02 03:46:40;;;;;;;;;;;;;;;-2.41;98.96;92281.47;1061078;56;20180;-84
2021/01/02 03:47:47;;;;;;;;;;;;;;;-2.29;98.06;92289.84;1061247;56;20197;-84
2021/01/02 03:48:48;;;;;;;;;;;;;;;-2.37;97.94;92290.09;1063565;55;20170;-84
2021/01/02 03:49:48;;;;;;;;;;;;;;;-2.29;97.96;92286.47;1062126;56;20157;-83
2021/01/02 03:50:49;;;;;;;;;;;;;;;-2.25;97.91;92281.28;1063509;55;20157;-83
2021/01/02 03:51:49;;;;;;;;;;;;;;;-2.33;97.74;92283.84;1063326;55;20189;-83
2021/01/02 03:52:50;;;;;;;;;;;;;;;-2.30;97.84;92290.19;1061325;56;20177;-82
2021/01/02 03:53:50;;;;;;;;;;;;;;;-2.26;97.16;92290.25;1061441;56;20615;-83
2021/01/02 03:54:51;;;;;;;;;;;;;;;-2.34;97.84;92284.91;1061243;56;20177;-83
2021/01/02 03:55:51;;;;;;;;;;;;;;;-2.32;97.99;92289.81;1063417;55;20162;-83
2021/01/02 03:56:52;;;;;;;;;;;;;;;-2.42;97.96;92287.81;1065556;55;20270;-82
2021/01/02 03:57:54;;;;;;;;;;;;;;;-2.46;98.13;92287.75;1063365;55;20639;-84
2021/01/02 03:58:54;;;;;;;;;;;;;;;-2.42;98.28;92287.81;1061398;56;20181;-83
2021/01/02 03:59:55;;;;;;;;;;;;;;;-2.33;97.87;92288.28;1065459;55;20578;-83
2021/01/02 04:00:55;;;;;;;;;;;;;;;-2.35;98.17;92288.66;1065656;55;20177;-84
2021/01/02 04:01:57;;;;;;;;;;;;;;;-2.35;97.67;92286.03;1063446;55;20154;-84
2021/01/02 04:02:57;;;;;;;;;;;;;;;-2.38;97.69;92294.59;1065600;55;20184;-86
2021/01/02 04:03:58;;;;;;;;;;;;;;;-2.36;98.05;92283.78;1065681;55;20661;-84
2021/01/02 04:04:58;;;;;;;;;;;;;;;-2.40;98.03;92288.22;1063328;55;20247;-83
2021/01/02 04:05:59;;;;;;;;;;;;;;;-2.33;98.21;92281.22;1059205;56;20154;-83
2021/01/02 04:07:03;;;;;;;;;;;;;;;-2.33;98.31;92280.44;1061326;56;20195;-85
2021/01/02 04:08:04;;;;;;;;;;;;;;;-2.30;97.33;92277.88;1063476;55;20233;-85
2021/01/02 04:09:04;;;;;;;;;;;;;;;-2.29;97.83;92276.75;1065579;55;20161;-83
2021/01/02 04:10:06;;;;;;;;;;;;;;;-2.30;97.74;92274.50;1065538;55;20250;-83
2021/01/02 04:11:09;;;;;;;;;;;;;;;-2.38;97.85;92267.66;1063544;55;20733;-84
2021/01/02 04:12:09;;;;;;;;;;;;;;;-2.44;97.66;92275.09;1061298;56;20311;-84
2021/01/02 04:13:11;;;;;;;;;;;;;;;-2.50;98.80;92276.50;1061310;56;20158;-84
2021/01/02 04:14:13;;;;;;;;;;;;;;;-2.61;98.39;92275.59;1061212;56;20174;-84
2021/01/02 04:15:13;;;;;;;;;;;;;;;-2.57;99.38;92269.31;1063440;55;20185;-86
2021/01/02 04:16:14;;;;;;;;;;;;;;;-2.58;98.70;92269.66;1063453;56;20146;-84
2021/01/02 04:17:14;;;;;;;;;;;;;;;-2.44;99.08;92269.09;1061334;56;20154;-83
2021/01/02 04:18:17;;;;;;;;;;;;;;;-2.47;99.18;92267.19;1061318;55;20158;-85
2021/01/02 04:19:19;;;;;;;;;;;;;;;-2.45;99.26;92264.97;1061358;56;20197;-83
2021/01/02 04:20:21;;;;;;;;;;;;;;;-2.49;98.65;92272.03;1063610;55;20161;-83
2021/01/02 04:21:21;;;;;;;;;;;;;;;-2.47;99.17;92269.81;1065849;55;20181;-85
2021/01/02 04:22:22;;;;;;;;;;;;;;;-2.48;99.22;92270.91;1065988;55;20170;-83
2021/01/02 04:23:22;;;;;;;;;;;;;;;-2.46;98.70;92272.06;1063718;55;20165;-83
2021/01/02 04:24:23;;;;;;;;;;;;;;;-2.49;99.44;92270.16;1061601;56;20185;-85
2021/01/02 04:25:23;;;;;;;;;;;;;;;-2.46;99.47;92266.06;1063783;55;20650;-84
2021/01/02 04:26:25;;;;;;;;;;;;;;;-2.47;99.37;92272.41;1063806;55;20583;-84
2021/01/02 04:27:26;;;;;;;;;;;;;;;-2.43;99.40;92265.37;1063800;55;20157;-85
2021/01/02 04:28:26;;;;;;;;;;;;;;;-2.35;99.16;92277.44;1065809;55;20605;-83
2021/01/02 04:29:27;;;;;;;;;;;;;;;-2.28;99.06;92280.16;1068060;55;20176;-83
2021/01/02 04:30:27;;;;;;;;;;;;;;;-2.28;98.22;92278.28;1065999;55;20162;-83
2021/01/02 04:31:38;;;;;;;;;;;;;;;-2.36;98.11;92268.09;1061587;56;20182;-83
2021/01/02 04:32:43;;;;;;;;;;;;;;;-2.41;98.54;92266.53;1062322;55;20189;-83
2021/01/02 04:33:43;;;;;;;;;;;;;;;-2.39;98.82;92274.00;1063903;55;20177;-85
2021/01/02 04:34:43;;;;;;;;;;;;;;;-2.43;98.31;92271.34;1063839;55;20661;-85
2021/01/02 04:35:44;;;;;;;;;;;;;;;-2.47;98.15;92269.81;1063698;55;20182;-87
2021/01/02 04:36:46;;;;;;;;;;;;;;;-2.44;98.65;92275.09;1063634;55;20280;-84
2021/01/02 04:37:47;;;;;;;;;;;;;;;-2.36;98.11;92268.84;1059606;56;20162;-84
2021/01/02 04:38:47;;;;;;;;;;;;;;;-2.33;97.81;92278.59;1061498;56;20153;-83
2021/01/02 04:39:48;;;;;;;;;;;;;;;-2.42;98.76;92272.09;1063675;55;20162;-83
2021/01/02 04:40:54;;;;;;;;;;;;;;;-2.35;98.60;92275.56;1067998;55;20630;-84
2021/01/02 04:41:56;;;;;;;;;;;;;;;-2.38;97.81;92270.28;1063664;55;20157;-83
2021/01/02 04:42:56;;;;;;;;;;;;;;;-2.36;98.13;92270.69;1063771;55;20150;-83
2021/01/02 04:43:57;;;;;;;;;;;;;;;-2.36;98.21;92260.97;1063627;55;20185;-86
2021/01/02 04:44:58;;;;;;;;;;;;;;;-2.41;97.92;92269.16;1063666;55;21106;-85
2021/01/02 04:46:00;;;;;;;;;;;;;;;-2.39;98.00;92269.53;1063743;55;20150;-83
2021/01/02 04:47:02;;;;;;;;;;;;;;;-2.44;98.24;92267.22;1063559;55;20165;-84
2021/01/02 04:48:04;;;;;;;;;;;;;;;-2.45;98.32;92273.59;1063789;55;20262;-83
2021/01/02 04:49:05;;;;;;;;;;;;;;;-2.46;98.38;92269.44;1065963;55;20193;-84
2021/01/02 04:50:06;;;;;;;;;;;;;;;-2.43;98.73;92268.72;1063463;55;20169;-84
2021/01/02 04:51:08;;;;;;;;;;;;;;;-2.45;98.65;92272.84;1061619;55;20198;-83
2021/01/02 04:52:09;;;;;;;;;;;;;;;-2.48;98.19;92276.91;1063589;55;20177;-85
2021/01/02 04:53:12;;;;;;;;;;;;;;;-2.52;98.52;92270.88;1063712;55;20172;-83
2021/01/02 04:54:13;;;;;;;;;;;;;;;-2.60;99.30;92272.63;1063688;55;20726;-84
2021/01/02 04:55:16;;;;;;;;;;;;;;;-2.56;98.85;92276.03;1061548;56;20153;-84
2021/01/02 04:56:18;;;;;;;;;;;;;;;-2.48;98.93;92271.66;1061769;55;20170;-84
2021/01/02 04:57:19;;;;;;;;;;;;;;;-2.46;98.96;92276.53;1065811;55;20265;-84
2021/01/02 04:58:21;;;;;;;;;;;;;;;-2.49;99.04;92282.50;1063693;55;20791;-84
2021/01/02 04:59:26;;;;;;;;;;;;;;;-2.49;98.99;92278.00;1063642;55;20272;-85
2021/01/02 05:00:26;;;;;;;;;;;;;;;-2.47;98.64;92281.00;1063851;55;20204;-84
2021/01/02 05:01:31;;;;;;;;;;;;;;;-2.40;99.16;92283.72;1065696;55;20166;-82
2021/01/02 05:02:32;;;;;;;;;;;;;;;-2.45;98.57;92278.06;1063787;55;20748;-82
2021/01/02 05:03:35;;;;;;;;;;;;;;;-2.49;98.95;92282.50;1061564;56;20237;-84
2021/01/02 05:04:36;;;;;;;;;;;;;;;-2.45;99.29;92283.28;1063857;55;20162;-84
2021/01/02 05:05:36;;;;;;;;;;;;;;;-2.47;99.50;92282.88;1063552;55;20151;-82
2021/01/02 05:06:37;;;;;;;;;;;;;;;-2.35;99.22;92282.66;1061545;56;20157;-83
2021/01/02 05:07:37;;;;;;;;;;;;;;;-2.37;98.72;92282.25;1059527;56;20202;-84
2021/01/02 05:08:39;;;;;;;;;;;;;;;-2.38;98.35;92284.12;1061532;56;20153;-83
2021/01/02 05:09:39;;;;;;;;;;;;;;;-2.39;98.49;92285.22;1059281;56;21013;-84
2021/01/02 05:10:40;;;;;;;;;;;;;;;-2.37;98.67;92285.66;1063663;55;20180;-84
2021/01/02 05:11:40;;;;;;;;;;;;;;;-2.43;98.69;92288.91;1065664;55;20153;-83
2021/01/02 05:12:42;;;;;;;;;;;;;;;-2.39;98.28;92280.00;1061408;56;20182;-83
2021/01/02 05:13:42;;;;;;;;;;;;;;;-2.50;98.79;92280.97;1061606;55;20221;-84
2021/01/02 05:15:03;;;;;;;;;;;;;;;-2.51;98.78;92279.47;1065811;55;20146;-82
2021/01/02 05:16:18;;;;;;;;;;;;;;;-2.57;98.86;92281.63;1063618;55;20180;-85
2021/01/02 05:17:24;;;;;;;;;;;;;;;-2.64;98.83;92278.91;1060137;56;20677;-84
2021/01/02 05:18:25;;;;;;;;;;;;;;;-2.56;99.86;92283.88;1064201;55;20258;-83
2021/01/02 05:19:25;;;;;;;;;;;;;;;-2.56;99.49;92277.91;1068216;55;20168;-84
2021/01/02 05:20:26;;;;;;;;;;;;;;;-2.57;99.71;92277.16;1068277;55;20176;-83
2021/01/02 05:21:27;;;;;;;;;;;;;;;-2.61;99.61;92278.22;1063539;55;20173;-83
2021/01/02 05:22:28;;;;;;;;;;;;;;;-2.59;99.54;92282.00;1063644;55;20229;-84
2021/01/02 05:23:28;;;;;;;;;;;;;;;-2.61;100.00;92276.34;1063581;55;20610;-83
2021/01/02 05:24:29;;;;;;;;;;;;;;;-2.56;99.98;92278.66;1063555;55;20189;-83
2021/01/02 05:25:29;;;;;;;;;;;;;;;-2.66;99.36;92278.53;1065617;55;20258;-85
2021/01/02 05:26:32;;;;;;;;;;;;;;;-2.64;99.30;92276.31;1065812;55;20192;-82
2021/01/02 05:27:45;;;;;;;;;;;;;;;-2.57;99.97;92282.38;1063558;55;20157;-84
2021/01/02 05:29:11;;;;;;;;;;;;;;;-2.43;99.60;92283.69;1062834;55;20205;-83
2021/01/02 05:30:12;;;;;;;;;;;;;;;-2.39;99.43;92285.22;1064431;55;20758;-84
2021/01/02 05:31:13;;;;;;;;;;;;;;;-2.38;99.38;92278.13;1063487;55;20250;-82
2021/01/02 05:32:15;;;;;;;;;;;;;;;-2.36;99.24;92275.94;1061352;56;20173;-83
2021/01/02 05:33:15;;;;;;;;;;;;;;;-2.48;98.87;92274.28;1061681;56;20185;-84